sensor_id;sensor_type;location;lat;lon;timestamp;pressure;altitude;pressure_sealevel;temperature;humidity
38466;BME280;24244;51.950;5.902;2022-09-09T00:01:38;100670.91;;;17.21;76.98
38466;BME280;24244;51.950;5.902;2022-09-09T00:04:13;100668.00;;;17.22;77.04
38466;BME280;24244;51.950;5.902;2022-09-09T00:06:43;100670.09;;;17.20;77.18
38466;BME280;24244;51.950;5.902;2022-09-09T00:09:14;100662.28;;;17.19;77.18
38466;BME280;24244;51.950;5.902;2022-09-09T00:11:43;100664.72;;;17.20;77.45
38466;BME280;24244;51.950;5.902;2022-09-09T00:14:17;100666.00;;;17.18;77.33
38466;BME280;24244;51.950;5.902;2022-09-09T00:16:53;100668.94;;;17.16;77.35
38466;BME280;24244;51.950;5.902;2022-09-09T00:19:23;100662.72;;;17.16;77.45
38466;BME280;24244;51.950;5.902;2022-09-09T00:21:55;100664.81;;;17.14;77.52
38466;BME280;24244;51.950;5.902;2022-09-09T00:24:32;100669.97;;;17.15;77.72
38466;BME280;24244;51.950;5.902;2022-09-09T00:27:07;100665.41;;;17.16;77.73
38466;BME280;24244;51.950;5.902;2022-09-09T00:29:39;100665.41;;;17.16;77.79
38466;BME280;24244;51.950;5.902;2022-09-09T00:32:11;100667.28;;;17.15;77.82
38466;BME280;24244;51.950;5.902;2022-09-09T00:34:39;100669.16;;;17.15;77.96
38466;BME280;24244;51.950;5.902;2022-09-09T00:37:08;100668.34;;;17.14;77.82
38466;BME280;24244;51.950;5.902;2022-09-09T00:39:37;100668.34;;;17.14;78.06
38466;BME280;24244;51.950;5.902;2022-09-09T00:42:14;100665.66;;;17.14;78.18
38466;BME280;24244;51.950;5.902;2022-09-09T00:44:51;100668.94;;;17.16;78.41
38466;BME280;24244;51.950;5.902;2022-09-09T00:47:32;100655.50;;;17.16;78.10
38466;BME280;24244;51.950;5.902;2022-09-09T00:50:06;100661.91;;;17.15;78.44
38466;BME280;24244;51.950;5.902;2022-09-09T00:52:40;100654.91;;;17.14;78.33
38466;BME280;24244;51.950;5.902;2022-09-09T00:55:15;100659.44;;;17.14;78.29
38466;BME280;24244;51.950;5.902;2022-09-09T00:57:42;100658.63;;;17.13;78.22
38466;BME280;24244;51.950;5.902;2022-09-09T01:00:21;100657.81;;;17.13;78.45
38466;BME280;24244;51.950;5.902;2022-09-09T01:02:53;100650.84;;;17.12;78.50
38466;BME280;24244;51.950;5.902;2022-09-09T01:05:33;100645.91;;;17.09;78.25
38466;BME280;24244;51.950;5.902;2022-09-09T01:08:01;100650.69;;;17.07;78.43
38466;BME280;24244;51.950;5.902;2022-09-09T01:10:37;100652.81;;;17.05;78.53
38466;BME280;24244;51.950;5.902;2022-09-09T01:13:13;100652.22;;;17.03;78.55
38466;BME280;24244;51.950;5.902;2022-09-09T01:15:44;100652.44;;;17.01;78.48
38466;BME280;24244;51.950;5.902;2022-09-09T01:18:13;100651.63;;;17.01;78.54
38466;BME280;24244;51.950;5.902;2022-09-09T01:20:47;100652.31;;;16.96;78.44
38466;BME280;24244;51.950;5.902;2022-09-09T01:23:32;100654.63;;;16.93;78.38
38466;BME280;24244;51.950;5.902;2022-09-09T01:26:21;100658.63;;;16.90;78.54
38466;BME280;24244;51.950;5.902;2022-09-09T01:28:49;100652.66;;;16.88;78.46
38466;BME280;24244;51.950;5.902;2022-09-09T01:31:20;100660.91;;;16.87;78.30
38466;BME280;24244;51.950;5.902;2022-09-09T01:33:47;100660.31;;;16.84;78.38
38466;BME280;24244;51.950;5.902;2022-09-09T01:36:17;100657.06;;;16.82;78.35
38466;BME280;24244;51.950;5.902;2022-09-09T01:38:46;100657.53;;;16.79;78.33
38466;BME280;24244;51.950;5.902;2022-09-09T01:41:12;100659.59;;;16.77;78.17
38466;BME280;24244;51.950;5.902;2022-09-09T01:43:38;100653.41;;;16.77;78.36
38466;BME280;24244;51.950;5.902;2022-09-09T01:46:04;100663.81;;;16.73;78.17
38466;BME280;24244;51.950;5.902;2022-09-09T01:48:31;100654.59;;;16.69;78.26
38466;BME280;24244;51.950;5.902;2022-09-09T01:50:57;100656.06;;;16.65;78.54
38466;BME280;24244;51.950;5.902;2022-09-09T01:53:23;100655.72;;;16.62;78.39
38466;BME280;24244;51.950;5.902;2022-09-09T01:55:55;100648.91;;;16.59;78.31
38466;BME280;24244;51.950;5.902;2022-09-09T01:58:32;100650.44;;;16.55;78.35
38466;BME280;24244;51.950;5.902;2022-09-09T02:01:06;100645.50;;;16.52;78.26
38466;BME280;24244;51.950;5.902;2022-09-09T02:03:35;100648.41;;;16.51;78.18
38466;BME280;24244;51.950;5.902;2022-09-09T02:06:08;100654.00;;;16.49;78.31
38466;BME280;24244;51.950;5.902;2022-09-09T02:08:42;100642.69;;;16.47;78.19
38466;BME280;24244;51.950;5.902;2022-09-09T02:11:11;100645.81;;;16.44;78.31
38466;BME280;24244;51.950;5.902;2022-09-09T02:13:39;100641.72;;;16.41;78.13
38466;BME280;24244;51.950;5.902;2022-09-09T02:16:08;100647.31;;;16.40;78.33
38466;BME280;24244;51.950;5.902;2022-09-09T02:18:39;100643.22;;;16.37;78.28
38466;BME280;24244;51.950;5.902;2022-09-09T02:21:06;100637.03;;;16.37;78.29
38466;BME280;24244;51.950;5.902;2022-09-09T02:23:33;100641.59;;;16.36;78.05
38466;BME280;24244;51.950;5.902;2022-09-09T02:26:00;100639.13;;;16.35;77.98
38466;BME280;24244;51.950;5.902;2022-09-09T02:28:29;100643.66;;;16.34;78.17
38466;BME280;24244;51.950;5.902;2022-09-09T02:30:56;100634.22;;;16.32;78.01
38466;BME280;24244;51.950;5.902;2022-09-09T02:33:27;100626.63;;;16.29;78.31
38466;BME280;24244;51.950;5.902;2022-09-09T02:35:55;100629.78;;;16.26;78.20
38466;BME280;24244;51.950;5.902;2022-09-09T02:38:29;100630.00;;;16.24;78.18
38466;BME280;24244;51.950;5.902;2022-09-09T02:40:56;100632.06;;;16.22;78.24
38466;BME280;24244;51.950;5.902;2022-09-09T02:43:23;100629.84;;;16.19;78.18
38466;BME280;24244;51.950;5.902;2022-09-09T02:45:53;100626.56;;;16.17;78.33
38466;BME280;24244;51.950;5.902;2022-09-09T02:48:32;100619.56;;;16.16;78.33
38466;BME280;24244;51.950;5.902;2022-09-09T02:51:05;100622.47;;;16.15;78.44
38466;BME280;24244;51.950;5.902;2022-09-09T02:53:39;100622.94;;;16.12;78.51
38466;BME280;24244;51.950;5.902;2022-09-09T02:56:13;100623.16;;;16.10;78.35
38466;BME280;24244;51.950;5.902;2022-09-09T02:58:40;100626.06;;;16.09;78.51
38466;BME280;24244;51.950;5.902;2022-09-09T03:01:06;100629.78;;;16.08;78.26
38466;BME280;24244;51.950;5.902;2022-09-09T03:03:35;100627.31;;;16.06;78.48
38466;BME280;24244;51.950;5.902;2022-09-09T03:06:01;100634.78;;;16.04;78.58
38466;BME280;24244;51.950;5.902;2022-09-09T03:08:27;100631.28;;;16.03;78.55
38466;BME280;24244;51.950;5.902;2022-09-09T03:10:54;100634.56;;;16.05;78.54
38466;BME280;24244;51.950;5.902;2022-09-09T03:13:19;100631.28;;;16.03;78.34
38466;BME280;24244;51.950;5.902;2022-09-09T03:15:45;100633.38;;;16.01;78.46
38466;BME280;24244;51.950;5.902;2022-09-09T03:18:10;100630.91;;;16.00;78.62
38466;BME280;24244;51.950;5.902;2022-09-09T03:20:37;100637.31;;;15.99;78.63
38466;BME280;24244;51.950;5.902;2022-09-09T03:23:03;100637.31;;;15.99;78.70
38466;BME280;24244;51.950;5.902;2022-09-09T03:25:29;100638.94;;;16.00;78.53
38466;BME280;24244;51.950;5.902;2022-09-09T03:27:55;100639.78;;;16.00;78.69
38466;BME280;24244;51.950;5.902;2022-09-09T03:30:22;100637.09;;;16.00;78.94
38466;BME280;24244;51.950;5.902;2022-09-09T03:32:47;100650.28;;;16.02;78.63
38466;BME280;24244;51.950;5.902;2022-09-09T03:35:13;100643.28;;;16.01;79.10
38466;BME280;24244;51.950;5.902;2022-09-09T03:37:40;100640.81;;;15.99;78.90
38466;BME280;24244;51.950;5.902;2022-09-09T03:40:08;100633.84;;;15.98;78.84
38466;BME280;24244;51.950;5.902;2022-09-09T03:42:35;100637.56;;;15.97;79.28
38466;BME280;24244;51.950;5.902;2022-09-09T03:45:02;100637.56;;;15.97;79.17
38466;BME280;24244;51.950;5.902;2022-09-09T03:47:28;100638.38;;;15.98;79.02
38466;BME280;24244;51.950;5.902;2022-09-09T03:49:54;100637.56;;;15.97;79.08
38466;BME280;24244;51.950;5.902;2022-09-09T03:52:19;100639.63;;;15.95;79.55
38466;BME280;24244;51.950;5.902;2022-09-09T03:54:48;100628.91;;;15.95;79.40
38466;BME280;24244;51.950;5.902;2022-09-09T03:57:13;100631.81;;;15.94;79.24
38466;BME280;24244;51.950;5.902;2022-09-09T03:59:42;100640.44;;;15.96;79.48
38466;BME280;24244;51.950;5.902;2022-09-09T04:02:07;100633.00;;;15.98;79.37
38466;BME280;24244;51.950;5.902;2022-09-09T04:04:33;100630.34;;;15.98;79.57
38466;BME280;24244;51.950;5.902;2022-09-09T04:06:58;100635.69;;;15.98;79.53
38466;BME280;24244;51.950;5.902;2022-09-09T04:09:24;100632.19;;;15.97;79.67
38466;BME280;24244;51.950;5.902;2022-09-09T04:11:51;100632.19;;;15.97;79.54
38466;BME280;24244;51.950;5.902;2022-09-09T04:14:17;100630.34;;;15.98;79.88
38466;BME280;24244;51.950;5.902;2022-09-09T04:16:43;100618.78;;;15.97;79.96
38466;BME280;24244;51.950;5.902;2022-09-09T04:19:09;100635.44;;;15.99;79.97
38466;BME280;24244;51.950;5.902;2022-09-09T04:21:43;100621.81;;;16.01;79.92
38466;BME280;24244;51.950;5.902;2022-09-09T04:24:10;100610.06;;;16.02;80.06
38466;BME280;24244;51.950;5.902;2022-09-09T04:26:36;100609.63;;;16.05;79.97
38466;BME280;24244;51.950;5.902;2022-09-09T04:29:03;100598.06;;;16.04;80.41
38466;BME280;24244;51.950;5.902;2022-09-09T04:31:29;100601.31;;;16.06;80.04
38466;BME280;24244;51.950;5.902;2022-09-09T04:33:55;100600.75;;;16.04;80.19
38466;BME280;24244;51.950;5.902;2022-09-09T04:36:21;100599.72;;;16.05;80.56
38466;BME280;24244;51.950;5.902;2022-09-09T04:38:47;100605.66;;;16.08;80.66
38466;BME280;24244;51.950;5.902;2022-09-09T04:41:15;100598.81;;;16.12;80.41
38466;BME280;24244;51.950;5.902;2022-09-09T04:43:42;100608.25;;;16.14;80.53
38466;BME280;24244;51.950;5.902;2022-09-09T04:46:09;100609.66;;;16.17;80.10
38466;BME280;24244;51.950;5.902;2022-09-09T04:48:34;100601.19;;;16.20;80.19
38466;BME280;24244;51.950;5.902;2022-09-09T04:51:02;100602.78;;;16.21;80.33
38466;BME280;24244;51.950;5.902;2022-09-09T04:53:28;100607.94;;;16.22;80.35
38466;BME280;24244;51.950;5.902;2022-09-09T04:56:01;100609.56;;;16.23;80.08
38466;BME280;24244;51.950;5.902;2022-09-09T04:58:28;100608.53;;;16.24;80.27
38466;BME280;24244;51.950;5.902;2022-09-09T05:00:54;100607.50;;;16.25;80.25
38466;BME280;24244;51.950;5.902;2022-09-09T05:03:20;100606.19;;;16.28;80.39
38466;BME280;24244;51.950;5.902;2022-09-09T05:05:46;100603.31;;;16.29;80.30
38466;BME280;24244;51.950;5.902;2022-09-09T05:08:12;100603.06;;;16.31;80.58
38466;BME280;24244;51.950;5.902;2022-09-09T05:10:38;100602.03;;;16.32;80.82
38466;BME280;24244;51.950;5.902;2022-09-09T05:13:05;100600.53;;;16.36;80.77
38466;BME280;24244;51.950;5.902;2022-09-09T05:15:31;100596.78;;;16.37;80.60
38466;BME280;24244;51.950;5.902;2022-09-09T05:17:57;100594.50;;;16.40;80.66
38466;BME280;24244;51.950;5.902;2022-09-09T05:20:25;100595.31;;;16.41;80.74
38466;BME280;24244;51.950;5.902;2022-09-09T05:22:52;100593.19;;;16.43;80.66
38466;BME280;24244;51.950;5.902;2022-09-09T05:25:19;100590.28;;;16.44;80.75
38466;BME280;24244;51.950;5.902;2022-09-09T05:27:44;100594.41;;;16.47;80.63
38466;BME280;24244;51.950;5.902;2022-09-09T05:30:11;100595.22;;;16.48;80.73
38466;BME280;24244;51.950;5.902;2022-09-09T05:32:37;100594.97;;;16.49;80.77
38466;BME280;24244;51.950;5.902;2022-09-09T05:35:03;100591.25;;;16.50;80.67
38466;BME280;24244;51.950;5.902;2022-09-09T05:37:31;100594.53;;;16.52;80.93
38466;BME280;24244;51.950;5.902;2022-09-09T05:39:57;100589.16;;;16.52;80.72
38466;BME280;24244;51.950;5.902;2022-09-09T05:42:23;100587.28;;;16.53;80.63
38466;BME280;24244;51.950;5.902;2022-09-09T05:44:49;100594.88;;;16.56;80.75
38466;BME280;24244;51.950;5.902;2022-09-09T05:47:16;100597.09;;;16.59;80.80
38466;BME280;24244;51.950;5.902;2022-09-09T05:49:42;100591.53;;;16.60;80.70
38466;BME280;24244;51.950;5.902;2022-09-09T05:52:08;100593.19;;;16.61;80.81
38466;BME280;24244;51.950;5.902;2022-09-09T05:54:36;100598.28;;;16.63;80.79
38466;BME280;24244;51.950;5.902;2022-09-09T05:57:03;100602.41;;;16.65;80.71
38466;BME280;24244;51.950;5.902;2022-09-09T05:59:29;100591.66;;;16.65;80.71
38466;BME280;24244;51.950;5.902;2022-09-09T06:01:54;100597.84;;;16.66;80.84
38466;BME280;24244;51.950;5.902;2022-09-09T06:04:20;100598.66;;;16.66;80.78
38466;BME280;24244;51.950;5.902;2022-09-09T06:06:47;100596.00;;;16.66;80.79
38466;BME280;24244;51.950;5.902;2022-09-09T06:09:14;100590.41;;;16.68;80.85
38466;BME280;24244;51.950;5.902;2022-09-09T06:11:42;100597.41;;;16.69;80.79
38466;BME280;24244;51.950;5.902;2022-09-09T06:14:08;100599.84;;;16.70;81.01
38466;BME280;24244;51.950;5.902;2022-09-09T06:16:34;100592.38;;;16.72;80.83
38466;BME280;24244;51.950;5.902;2022-09-09T06:19:01;100596.47;;;16.75;80.82
38466;BME280;24244;51.950;5.902;2022-09-09T06:21:29;100597.28;;;16.75;80.76
38466;BME280;24244;51.950;5.902;2022-09-09T06:23:55;100599.72;;;16.77;80.97
38466;BME280;24244;51.950;5.902;2022-09-09T06:26:23;100610.25;;;16.78;80.97
38466;BME280;24244;51.950;5.902;2022-09-09T06:28:51;100611.88;;;16.79;80.96
38466;BME280;24244;51.950;5.902;2022-09-09T06:31:19;100606.28;;;16.81;80.96
38466;BME280;24244;51.950;5.902;2022-09-09T06:33:49;100603.13;;;16.84;81.08
38466;BME280;24244;51.950;5.902;2022-09-09T06:36:17;100609.31;;;16.84;80.93
38466;BME280;24244;51.950;5.902;2022-09-09T06:38:43;100603.72;;;16.86;80.73
38466;BME280;24244;51.950;5.902;2022-09-09T06:41:10;100602.69;;;16.87;80.79
38466;BME280;24244;51.950;5.902;2022-09-09T06:43:37;100602.91;;;16.86;80.73
38466;BME280;24244;51.950;5.902;2022-09-09T06:46:06;100607.00;;;16.88;80.83
38466;BME280;24244;51.950;5.902;2022-09-09T06:48:33;100600.00;;;16.87;80.97
38466;BME280;24244;51.950;5.902;2022-09-09T06:51:03;100611.09;;;16.91;80.73
38466;BME280;24244;51.950;5.902;2022-09-09T06:53:29;100606.28;;;16.93;80.82
38466;BME280;24244;51.950;5.902;2022-09-09T06:55:55;100597.69;;;16.91;80.75
38466;BME280;24244;51.950;5.902;2022-09-09T06:58:20;100595.56;;;16.93;81.00
38466;BME280;24244;51.950;5.902;2022-09-09T07:00:47;100593.47;;;16.95;80.53
38466;BME280;24244;51.950;5.902;2022-09-09T07:03:14;100596.97;;;16.95;80.64
38466;BME280;24244;51.950;5.902;2022-09-09T07:05:40;100596.97;;;16.95;80.67
38466;BME280;24244;51.950;5.902;2022-09-09T07:08:05;100608.53;;;16.96;80.61
38466;BME280;24244;51.950;5.902;2022-09-09T07:10:31;100608.53;;;16.96;80.82
38466;BME280;24244;51.950;5.902;2022-09-09T07:12:58;100601.06;;;16.98;80.83
38466;BME280;24244;51.950;5.902;2022-09-09T07:15:25;100601.06;;;16.98;80.83
38466;BME280;24244;51.950;5.902;2022-09-09T07:17:51;100602.22;;;17.02;80.48
38466;BME280;24244;51.950;5.902;2022-09-09T07:20:20;100605.50;;;17.04;80.45
38466;BME280;24244;51.950;5.902;2022-09-09T07:22:46;100604.47;;;17.05;80.41
38466;BME280;24244;51.950;5.902;2022-09-09T07:25:11;100606.06;;;17.06;80.67
38466;BME280;24244;51.950;5.902;2022-09-09T07:27:37;100601.28;;;17.08;80.40
38466;BME280;24244;51.950;5.902;2022-09-09T07:30:03;100607.25;;;17.10;80.33
38466;BME280;24244;51.950;5.902;2022-09-09T07:32:29;100607.03;;;17.11;80.35
38466;BME280;24244;51.950;5.902;2022-09-09T07:34:55;100599.81;;;17.12;80.38
38466;BME280;24244;51.950;5.902;2022-09-09T07:37:24;100597.91;;;17.12;80.42
38466;BME280;24244;51.950;5.902;2022-09-09T07:39:50;100600.34;;;17.14;80.47
38466;BME280;24244;51.950;5.902;2022-09-09T07:42:16;100596.84;;;17.13;80.42
38466;BME280;24244;51.950;5.902;2022-09-09T07:44:41;100596.41;;;17.16;80.42
38466;BME280;24244;51.950;5.902;2022-09-09T07:47:07;100602.38;;;17.18;80.29
38466;BME280;24244;51.950;5.902;2022-09-09T07:49:33;100610.75;;;17.22;80.53
38466;BME280;24244;51.950;5.902;2022-09-09T07:51:59;100610.88;;;17.27;80.26
38466;BME280;24244;51.950;5.902;2022-09-09T07:54:26;100615.78;;;17.30;80.48
38466;BME280;24244;51.950;5.902;2022-09-09T07:56:52;100621.75;;;17.32;80.36
38466;BME280;24244;51.950;5.902;2022-09-09T07:59:18;100623.41;;;17.33;80.16
38466;BME280;24244;51.950;5.902;2022-09-09T08:01:45;100614.84;;;17.36;80.16
38466;BME280;24244;51.950;5.902;2022-09-09T08:04:14;100615.66;;;17.37;80.00
38466;BME280;24244;51.950;5.902;2022-09-09T08:06:42;100618.94;;;17.39;79.86
38466;BME280;24244;51.950;5.902;2022-09-09T08:09:08;100626.78;;;17.40;79.83
38466;BME280;24244;51.950;5.902;2022-09-09T08:11:37;100623.84;;;17.42;79.77
38466;BME280;24244;51.950;5.902;2022-09-09T08:14:03;100618.47;;;17.42;79.69
38466;BME280;24244;51.950;5.902;2022-09-09T08:16:31;100623.59;;;17.43;79.43
38466;BME280;24244;51.950;5.902;2022-09-09T08:18:57;100610.75;;;17.45;79.51
38466;BME280;24244;51.950;5.902;2022-09-09T08:21:24;100612.97;;;17.48;79.11
38466;BME280;24244;51.950;5.902;2022-09-09T08:23:52;100609.22;;;17.49;79.20
38466;BME280;24244;51.950;5.902;2022-09-09T08:26:20;100614.16;;;17.52;79.11
38466;BME280;24244;51.950;5.902;2022-09-09T08:28:51;100611.22;;;17.54;78.98
38466;BME280;24244;51.950;5.902;2022-09-09T08:31:18;100623.38;;;17.56;79.04
38466;BME280;24244;51.950;5.902;2022-09-09T08:33:44;100622.31;;;17.57;78.80
38466;BME280;24244;51.950;5.902;2022-09-09T08:36:15;100622.91;;;17.59;78.63
38466;BME280;24244;51.950;5.902;2022-09-09T08:38:41;100625.13;;;17.63;78.63
38466;BME280;24244;51.950;5.902;2022-09-09T08:41:39;100635.44;;;17.66;78.54
38466;BME280;24244;51.950;5.902;2022-09-09T08:44:11;100630.88;;;17.66;78.58
38466;BME280;24244;51.950;5.902;2022-09-09T08:46:46;100634.97;;;17.69;78.32
38466;BME280;24244;51.950;5.902;2022-09-09T08:49:29;100629.94;;;17.72;78.25
38466;BME280;24244;51.950;5.902;2022-09-09T08:51:59;100634.03;;;17.75;78.33
38466;BME280;24244;51.950;5.902;2022-09-09T08:54:27;100628.66;;;17.75;78.17
38466;BME280;24244;51.950;5.902;2022-09-09T08:56:57;100633.75;;;17.76;77.87
38466;BME280;24244;51.950;5.902;2022-09-09T08:59:24;100637.88;;;17.79;77.88
38466;BME280;24244;51.950;5.902;2022-09-09T09:01:56;100637.88;;;17.79;77.67
38466;BME280;24244;51.950;5.902;2022-09-09T09:04:37;100636.81;;;17.80;77.67
38466;BME280;24244;51.950;5.902;2022-09-09T09:07:11;100638.44;;;17.81;77.46
38466;BME280;24244;51.950;5.902;2022-09-09T09:09:49;100643.59;;;17.82;77.25
38466;BME280;24244;51.950;5.902;2022-09-09T09:12:18;100647.44;;;17.86;77.09
38466;BME280;24244;51.950;5.902;2022-09-09T09:14:47;100645.09;;;17.90;76.72
38466;BME280;24244;51.950;5.902;2022-09-09T09:17:13;100647.81;;;17.90;76.72
38466;BME280;24244;51.950;5.902;2022-09-09T09:19:41;100647.53;;;17.91;76.55
38466;BME280;24244;51.950;5.902;2022-09-09T09:22:16;100643.56;;;17.94;76.20
38466;BME280;24244;51.950;5.902;2022-09-09T09:24:48;100647.66;;;17.96;76.16
38466;BME280;24244;51.950;5.902;2022-09-09T09:27:20;100649.03;;;17.99;75.98
38466;BME280;24244;51.950;5.902;2022-09-09T09:29:50;100647.75;;;18.02;75.92
38466;BME280;24244;51.950;5.902;2022-09-09T09:32:18;100658.28;;;18.03;75.85
38466;BME280;24244;51.950;5.902;2022-09-09T09:34:49;100640.84;;;18.06;75.70
38466;BME280;24244;51.950;5.902;2022-09-09T09:37:17;100640.38;;;18.09;75.58
38466;BME280;24244;51.950;5.902;2022-09-09T09:39:46;100651.72;;;18.11;75.71
38466;BME280;24244;51.950;5.902;2022-09-09T09:42:14;100649.59;;;18.13;75.72
38466;BME280;24244;51.950;5.902;2022-09-09T09:44:41;100643.75;;;18.16;75.38
38466;BME280;24244;51.950;5.902;2022-09-09T09:47:11;100639.50;;;18.20;75.34
38466;BME280;24244;51.950;5.902;2022-09-09T09:49:37;100636.94;;;18.25;75.36
38466;BME280;24244;51.950;5.902;2022-09-09T09:52:03;100639.13;;;18.28;75.22
38466;BME280;24244;51.950;5.902;2022-09-09T09:54:31;100643.00;;;18.32;75.20
38466;BME280;24244;51.950;5.902;2022-09-09T09:57:08;100636.06;;;18.36;74.89
38466;BME280;24244;51.950;5.902;2022-09-09T09:59:35;100637.25;;;18.40;74.77
38466;BME280;24244;51.950;5.902;2022-09-09T10:02:25;100640.00;;;18.45;74.50
38466;BME280;24244;51.950;5.902;2022-09-09T10:05:01;100631.94;;;18.45;74.73
38466;BME280;24244;51.950;5.902;2022-09-09T10:07:27;100638.97;;;18.46;74.48
38466;BME280;24244;51.950;5.902;2022-09-09T10:09:55;100629.56;;;18.49;74.39
38466;BME280;24244;51.950;5.902;2022-09-09T10:12:32;100645.47;;;18.50;74.10
38466;BME280;24244;51.950;5.902;2022-09-09T10:15:09;100637.16;;;18.52;74.02
38466;BME280;24244;51.950;5.902;2022-09-09T10:17:53;100645.38;;;18.57;73.94
38466;BME280;24244;51.950;5.902;2022-09-09T10:20:22;100645.56;;;18.55;73.92
38466;BME280;24244;51.950;5.902;2022-09-09T10:23:04;100650.75;;;18.57;73.80
38466;BME280;24244;51.950;5.902;2022-09-09T10:25:47;100645.13;;;18.58;73.79
38466;BME280;24244;51.950;5.902;2022-09-09T10:28:41;100627.09;;;18.59;73.78
38466;BME280;24244;51.950;5.902;2022-09-09T10:31:19;100634.13;;;18.60;73.70
38466;BME280;24244;51.950;5.902;2022-09-09T10:33:51;100637.13;;;18.63;73.54
38466;BME280;24244;51.950;5.902;2022-09-09T10:36:24;100645.56;;;18.67;73.33
38466;BME280;24244;51.950;5.902;2022-09-09T10:38:57;100647.75;;;18.70;73.31
38466;BME280;24244;51.950;5.902;2022-09-09T10:41:33;100643.78;;;18.72;73.23
38466;BME280;24244;51.950;5.902;2022-09-09T10:44:40;100648.09;;;18.73;73.16
38466;BME280;24244;51.950;5.902;2022-09-09T10:47:24;100641.31;;;18.71;73.37
38466;BME280;24244;51.950;5.902;2022-09-09T10:52:58;100640.03;;;18.73;73.59
38466;BME280;24244;51.950;5.902;2022-09-09T10:55:33;100644.34;;;18.74;73.56
38466;BME280;24244;51.950;5.902;2022-09-09T10:58:03;100634.41;;;18.75;73.43
38466;BME280;24244;51.950;5.902;2022-09-09T11:00:38;100636.81;;;18.76;73.38
38466;BME280;24244;51.950;5.902;2022-09-09T11:03:06;100633.91;;;18.78;73.52
38466;BME280;24244;51.950;5.902;2022-09-09T11:05:42;100637.66;;;18.77;73.28
38466;BME280;24244;51.950;5.902;2022-09-09T11:08:13;100627.69;;;18.77;73.29
38466;BME280;24244;51.950;5.902;2022-09-09T11:10:44;100638.22;;;18.79;72.97
38466;BME280;24244;51.950;5.902;2022-09-09T11:13:17;100644.44;;;18.80;73.07
38466;BME280;24244;51.950;5.902;2022-09-09T11:15:48;100640.09;;;18.78;72.81
38466;BME280;24244;51.950;5.902;2022-09-09T11:18:19;100643.63;;;18.79;72.84
38466;BME280;24244;51.950;5.902;2022-09-09T11:20:51;100646.00;;;18.75;73.37
38466;BME280;24244;51.950;5.902;2022-09-09T11:23:25;100652.16;;;18.76;73.87
38466;BME280;24244;51.950;5.902;2022-09-09T11:25:55;100638.97;;;18.74;74.20
38466;BME280;24244;51.950;5.902;2022-09-09T11:28:40;100639.78;;;18.75;74.47
38466;BME280;24244;51.950;5.902;2022-09-09T11:31:27;100651.38;;;18.75;74.83
38466;BME280;24244;51.950;5.902;2022-09-09T11:36:59;100642.22;;;18.76;74.90
38466;BME280;24244;51.950;5.902;2022-09-09T11:39:38;100651.69;;;18.79;75.03
38466;BME280;24244;51.950;5.902;2022-09-09T11:42:22;100646.66;;;18.83;75.22
38466;BME280;24244;51.950;5.902;2022-09-09T11:44:49;100646.38;;;18.84;75.33
38466;BME280;24244;51.950;5.902;2022-09-09T11:47:23;100649.44;;;18.88;75.10
38466;BME280;24244;51.950;5.902;2022-09-09T11:50:07;100648.84;;;18.86;75.08
38466;BME280;24244;51.950;5.902;2022-09-09T11:52:38;100649.09;;;18.84;74.88
38466;BME280;24244;51.950;5.902;2022-09-09T11:55:09;100636.34;;;18.80;75.21
38466;BME280;24244;51.950;5.902;2022-09-09T11:57:37;100646.06;;;18.81;75.54
38466;BME280;24244;51.950;5.902;2022-09-09T12:00:04;100644.19;;;18.81;75.81
38466;BME280;24244;51.950;5.902;2022-09-09T12:02:31;100639.63;;;18.82;75.85
38466;BME280;24244;51.950;5.902;2022-09-09T12:04:59;100651.78;;;18.84;75.96
38466;BME280;24244;51.950;5.902;2022-09-09T12:07:31;100650.25;;;18.88;76.02
38466;BME280;24244;51.950;5.902;2022-09-09T12:10:03;100647.03;;;18.91;76.03
38466;BME280;24244;51.950;5.902;2022-09-09T12:12:43;100638.50;;;18.94;76.09
38466;BME280;24244;51.950;5.902;2022-09-09T12:15:25;100651.72;;;18.96;76.14
38466;BME280;24244;51.950;5.902;2022-09-09T12:17:54;100641.19;;;18.94;76.08
38466;BME280;24244;51.950;5.902;2022-09-09T12:20:22;100642.81;;;18.95;76.06
38466;BME280;24244;51.950;5.902;2022-09-09T12:23:00;100637.19;;;18.97;75.99
38466;BME280;24244;51.950;5.902;2022-09-09T12:25:38;100638.81;;;18.98;75.95
38466;BME280;24244;51.950;5.902;2022-09-09T12:28:10;100643.94;;;18.99;75.95
38466;BME280;24244;51.950;5.902;2022-09-09T12:30:46;100638.56;;;18.99;75.84
38466;BME280;24244;51.950;5.902;2022-09-09T12:33:17;100635.88;;;18.99;75.84
38466;BME280;24244;51.950;5.902;2022-09-09T12:35:44;100630.81;;;19.03;75.81
38466;BME280;24244;51.950;5.902;2022-09-09T12:38:15;100633.84;;;19.06;75.50
38466;BME280;24244;51.950;5.902;2022-09-09T12:40:54;100633.91;;;19.11;75.40
38466;BME280;24244;51.950;5.902;2022-09-09T12:43:22;100626.16;;;19.15;75.45
38466;BME280;24244;51.950;5.902;2022-09-09T12:45:49;100624.34;;;19.21;75.27
38466;BME280;24244;51.950;5.902;2022-09-09T12:48:25;100617.91;;;19.22;75.31
38466;BME280;24244;51.950;5.902;2022-09-09T12:50:52;100619.03;;;19.26;75.13
38466;BME280;24244;51.950;5.902;2022-09-09T12:53:22;100620.66;;;19.27;74.91
38466;BME280;24244;51.950;5.902;2022-09-09T12:55:55;100614.22;;;19.28;74.93
38466;BME280;24244;51.950;5.902;2022-09-09T12:58:22;100625.59;;;19.30;74.86
38466;BME280;24244;51.950;5.902;2022-09-09T13:00:52;100623.13;;;19.28;74.46
38466;BME280;24244;51.950;5.902;2022-09-09T13:03:19;100615.03;;;19.28;74.61
38466;BME280;24244;51.950;5.902;2022-09-09T13:05:49;100611.88;;;19.31;74.58
38466;BME280;24244;51.950;5.902;2022-09-09T13:08:16;100616.44;;;19.31;74.62
38466;BME280;24244;51.950;5.902;2022-09-09T13:10:48;100619.94;;;19.31;74.69